Time;durP1;ratioP1;P1;durP2;ratioP2;P2;SDS_P1;SDS_P2;PMS_P1;PMS_P2;Temp;Humidity;BMP_temperature;BMP_pressure;BME280_temperature;BME280_humidity;BME280_pressure;Samples;Min_cycle;Max_cycle;Signal;HPM_P1;HPM_P2
2022/07/25 00:00:23;;;;;;;7.95;6.90;;;20.10;99.90;;;;;;5031521;28;20041;-50
2022/07/25 00:02:48;;;;;;;8.20;7.32;;;20.10;99.90;;;;;;5009673;28;20056;-48
2022/07/25 00:05:14;;;;;;;8.13;7.30;;;20.10;99.90;;;;;;5031395;28;20474;-47
2022/07/25 00:07:40;;;;;;;8.70;7.43;;;20.00;99.90;;;;;;5030947;28;20029;-50
2022/07/25 00:10:06;;;;;;;8.02;6.85;;;20.00;99.90;;;;;;5031248;28;20034;-48
2022/07/25 00:12:32;;;;;;;7.95;7.15;;;20.00;99.90;;;;;;5031252;28;20072;-48
2022/07/25 00:14:58;;;;;;;10.70;7.25;;;19.90;99.90;;;;;;5031183;28;20018;-48
2022/07/25 00:17:23;;;;;;;7.53;6.75;;;19.90;99.90;;;;;;5031599;28;20100;-54
2022/07/25 00:19:49;;;;;;;9.30;7.55;;;19.90;99.90;;;;;;5031132;28;20146;-49
2022/07/25 00:22:15;;;;;;;6.93;6.32;;;19.80;99.90;;;;;;5031275;28;20026;-49
2022/07/25 00:24:40;;;;;;;8.30;7.50;;;19.80;99.90;;;;;;5029872;28;20039;-47
2022/07/25 00:27:06;;;;;;;7.82;7.07;;;19.70;99.90;;;;;;5030390;28;20037;-48
2022/07/25 00:29:31;;;;;;;7.95;6.43;;;19.70;99.90;;;;;;5030563;28;20052;-47
2022/07/25 00:31:57;;;;;;;7.90;7.10;;;19.70;99.90;;;;;;5029785;28;20048;-48
2022/07/25 00:34:23;;;;;;;8.07;6.90;;;19.60;99.90;;;;;;5030005;28;20096;-49
2022/07/25 00:36:48;;;;;;;8.38;7.03;;;19.60;99.90;;;;;;5030519;28;20026;-48
2022/07/25 00:39:14;;;;;;;7.20;6.60;;;19.60;99.90;;;;;;5030583;28;20041;-48
2022/07/25 00:41:39;;;;;;;7.65;6.93;;;19.60;99.90;;;;;;5030229;28;20061;-51
2022/07/25 00:44:05;;;;;;;8.65;7.13;;;19.50;99.90;;;;;;5030371;28;20033;-48
2022/07/25 00:46:30;;;;;;;6.72;6.13;;;19.50;99.90;;;;;;5030503;28;20025;-51
2022/07/25 00:48:56;;;;;;;6.97;6.38;;;19.50;99.90;;;;;;5030205;28;20132;-50
2022/07/25 00:51:22;;;;;;;7.57;6.90;;;19.50;99.90;;;;;;5030221;28;20025;-49
2022/07/25 00:53:47;;;;;;;7.32;6.72;;;19.50;99.90;;;;;;5030539;28;20036;-52
2022/07/25 00:56:14;;;;;;;7.00;6.30;;;19.40;99.90;;;;;;5012830;28;20025;-50
2022/07/25 00:58:40;;;;;;;6.93;6.22;;;19.40;99.90;;;;;;5028498;28;20040;-49
2022/07/25 01:01:05;;;;;;;7.05;6.45;;;19.40;99.90;;;;;;5027937;28;20033;-57
2022/07/25 01:03:31;;;;;;;8.43;7.00;;;19.40;99.90;;;;;;5027785;28;20036;-51
2022/07/25 01:05:56;;;;;;;7.05;6.35;;;19.40;99.90;;;;;;5030166;28;20116;-50
2022/07/25 01:08:22;;;;;;;7.40;6.72;;;19.40;99.90;;;;;;5030220;28;20085;-50
2022/07/25 01:10:48;;;;;;;6.47;5.97;;;19.40;99.90;;;;;;5029673;28;20055;-51
2022/07/25 01:13:14;;;;;;;7.15;6.45;;;19.30;99.90;;;;;;5029181;28;20027;-49
2022/07/25 01:15:42;;;;;;;11.43;6.32;;;19.30;99.90;;;;;;5029883;28;20142;-49
2022/07/25 01:18:07;;;;;;;7.20;6.45;;;19.30;99.90;;;;;;5012050;28;20590;-54
2022/07/25 01:20:34;;;;;;;7.13;5.70;;;19.30;99.90;;;;;;5030018;28;20112;-49
2022/07/25 01:23:00;;;;;;;6.45;5.93;;;19.30;99.90;;;;;;5029297;28;20025;-52
2022/07/25 01:27:54;;;;;;;6.85;6.03;;;19.30;99.90;;;;;;5045544;28;20052;-58
2022/07/25 01:30:21;;;;;;;6.57;5.97;;;19.30;99.90;;;;;;5049149;28;20395;-57
2022/07/25 01:32:47;;;;;;;6.63;6.03;;;19.30;99.90;;;;;;5045115;28;20487;-57
2022/07/25 01:35:13;;;;;;;6.40;5.90;;;19.20;99.90;;;;;;5043418;28;20104;-57
2022/07/25 01:37:40;;;;;;;6.88;6.32;;;19.20;99.90;;;;;;5026936;28;20045;-58
2022/07/25 01:40:06;;;;;;;7.00;6.32;;;19.20;99.90;;;;;;5028981;28;20079;-57
2022/07/25 01:42:33;;;;;;;5.85;5.35;;;19.20;99.90;;;;;;5049115;28;20032;-57
2022/07/25 01:44:59;;;;;;;6.65;5.95;;;19.20;99.90;;;;;;5047272;28;20109;-54
2022/07/25 01:47:24;;;;;;;6.18;5.68;;;19.20;99.90;;;;;;5049399;28;20049;-57
2022/07/25 01:49:50;;;;;;;8.30;5.93;;;19.20;99.90;;;;;;5029657;28;20519;-58
2022/07/25 01:52:16;;;;;;;6.78;6.18;;;19.20;99.90;;;;;;5030107;28;20058;-58
2022/07/25 01:54:42;;;;;;;6.10;5.47;;;19.20;99.90;;;;;;5026763;28;20021;-58
2022/07/25 01:57:08;;;;;;;7.35;5.78;;;19.20;99.90;;;;;;5031009;28;20029;-55
2022/07/25 01:59:38;;;;;;;6.68;5.93;;;19.20;99.90;;;;;;5043202;28;20074;-59
2022/07/25 02:02:05;;;;;;;5.82;5.07;;;19.10;99.90;;;;;;5046605;28;20633;-56
2022/07/25 02:04:30;;;;;;;6.20;5.60;;;19.10;99.90;;;;;;5044719;28;20142;-58
2022/07/25 02:06:56;;;;;;;6.03;5.43;;;19.10;99.90;;;;;;5047653;28;20535;-57
2022/07/25 02:09:22;;;;;;;6.50;5.40;;;19.10;99.90;;;;;;5041973;28;20112;-58
2022/07/25 02:11:47;;;;;;;5.85;5.25;;;19.10;99.90;;;;;;5048740;28;20102;-57
2022/07/25 02:14:13;;;;;;;6.07;5.55;;;19.10;99.90;;;;;;5046776;28;20112;-57
2022/07/25 02:16:38;;;;;;;5.50;4.95;;;19.10;99.90;;;;;;5048093;28;20503;-57
2022/07/25 02:19:04;;;;;;;6.22;5.60;;;19.10;99.90;;;;;;5029028;28;20111;-57
2022/07/25 02:21:30;;;;;;;6.35;5.55;;;19.10;99.90;;;;;;5041064;28;20440;-57
2022/07/25 02:23:55;;;;;;;5.38;4.88;;;19.10;99.90;;;;;;5037310;28;20030;-54
2022/07/25 02:26:21;;;;;;;6.10;5.50;;;19.10;99.90;;;;;;5042768;28;20037;-54
2022/07/25 02:28:48;;;;;;;5.82;5.35;;;19.10;99.90;;;;;;5046422;28;20033;-55
2022/07/25 02:31:14;;;;;;;7.68;5.38;;;19.10;99.90;;;;;;5046432;28;20029;-56
2022/07/25 02:33:39;;;;;;;5.95;5.35;;;19.20;99.90;;;;;;5047442;28;20028;-59
2022/07/25 02:36:06;;;;;;;5.25;4.80;;;19.20;99.90;;;;;;5030332;28;20029;-57
2022/07/25 02:38:31;;;;;;;8.90;5.05;;;19.10;99.90;;;;;;5042471;28;20107;-55
2022/07/25 02:40:57;;;;;;;4.95;4.55;;;19.20;99.90;;;;;;5030378;28;20152;-53
2022/07/25 02:43:22;;;;;;;5.53;4.90;;;19.20;99.90;;;;;;5027703;28;20465;-56
2022/07/25 02:45:48;;;;;;;5.22;4.82;;;19.20;99.90;;;;;;5047535;28;20059;-57
2022/07/25 02:48:13;;;;;;;4.85;4.45;;;19.20;99.90;;;;;;5048478;28;20025;-58
2022/07/25 02:50:42;;;;;;;5.50;4.97;;;19.10;99.90;;;;;;5048680;28;20104;-56
2022/07/25 02:53:08;;;;;;;5.63;4.82;;;19.10;99.90;;;;;;5024841;28;20097;-58
2022/07/25 02:55:33;;;;;;;6.90;5.07;;;19.10;99.90;;;;;;5040423;28;20033;-57
2022/07/25 02:57:59;;;;;;;4.93;4.32;;;19.10;99.90;;;;;;5046614;28;20040;-57
2022/07/25 03:00:24;;;;;;;4.80;4.40;;;19.10;99.90;;;;;;5041631;28;20025;-56
2022/07/25 03:02:50;;;;;;;4.90;4.40;;;19.10;99.90;;;;;;5031924;28;20029;-57
2022/07/25 03:05:16;;;;;;;4.68;4.22;;;19.10;99.90;;;;;;5047843;28;20459;-58
2022/07/25 03:07:43;;;;;;;4.38;3.92;;;19.10;99.90;;;;;;5052174;28;20344;-57
2022/07/25 03:10:11;;;;;;;5.55;4.38;;;19.10;99.90;;;;;;5049967;28;20033;-58
2022/07/25 03:12:37;;;;;;;7.13;4.80;;;19.10;99.90;;;;;;5049834;28;20021;-53
2022/07/25 03:15:04;;;;;;;4.63;4.20;;;19.10;99.90;;;;;;5051902;28;20031;-58
2022/07/25 03:17:30;;;;;;;4.47;4.07;;;19.00;99.90;;;;;;5048682;28;20037;-58
2022/07/25 03:19:55;;;;;;;4.88;4.38;;;19.10;99.90;;;;;;5052245;28;20083;-57
2022/07/25 03:22:22;;;;;;;4.55;4.15;;;19.10;99.90;;;;;;5029556;28;20032;-57
2022/07/25 03:24:47;;;;;;;4.80;4.22;;;19.00;99.90;;;;;;5049306;28;20025;-58
2022/07/25 03:27:13;;;;;;;3.83;3.50;;;19.00;99.90;;;;;;5034197;28;20495;-55
2022/07/25 03:29:39;;;;;;;3.97;3.67;;;19.00;99.90;;;;;;5042273;28;20025;-55
2022/07/25 03:32:05;;;;;;;4.72;3.55;;;19.00;99.90;;;;;;5049349;28;20025;-57
2022/07/25 03:34:31;;;;;;;4.03;3.72;;;19.00;99.90;;;;;;5045985;28;20108;-56
2022/07/25 03:36:57;;;;;;;4.40;3.78;;;19.00;99.90;;;;;;5049394;28;20104;-54
2022/07/25 03:39:23;;;;;;;4.18;3.75;;;19.00;99.90;;;;;;5033797;28;20475;-57
2022/07/25 03:41:49;;;;;;;3.55;3.20;;;19.00;99.90;;;;;;5051010;28;20029;-57
2022/07/25 03:44:15;;;;;;;4.28;3.88;;;19.00;99.90;;;;;;5051280;28;20067;-55
2022/07/25 03:46:40;;;;;;;4.25;3.85;;;19.00;99.90;;;;;;5047821;28;20025;-56
2022/07/25 03:49:06;;;;;;;4.20;3.80;;;19.00;99.90;;;;;;5049704;28;20052;-56
2022/07/25 03:51:31;;;;;;;6.82;3.95;;;19.00;99.90;;;;;;5033200;28;20406;-58
2022/07/25 03:54:07;;;;;;;4.97;3.60;;;19.00;99.90;;;;;;5042717;28;20019;-59
2022/07/25 03:56:39;;;;;;;7.57;3.70;;;19.10;99.90;;;;;;5033443;28;20024;-57
2022/07/25 03:59:06;;;;;;;5.68;3.55;;;19.00;99.90;;;;;;5050821;28;20045;-56
2022/07/25 04:01:33;;;;;;;3.53;3.22;;;19.10;99.90;;;;;;5051170;28;20079;-59
2022/07/25 04:03:59;;;;;;;3.80;3.45;;;19.10;99.90;;;;;;5051260;28;20036;-57
2022/07/25 04:06:25;;;;;;;3.65;3.30;;;19.10;99.90;;;;;;5050980;28;20028;-58
2022/07/25 04:08:51;;;;;;;3.53;3.22;;;19.10;99.90;;;;;;5032214;28;20143;-58
2022/07/25 04:11:17;;;;;;;4.32;3.13;;;19.20;99.90;;;;;;5031986;28;20672;-56
2022/07/25 04:13:42;;;;;;;4.50;3.30;;;19.20;99.90;;;;;;5032411;28;20029;-55
2022/07/25 04:16:08;;;;;;;3.30;3.00;;;19.20;99.90;;;;;;5047366;28;20056;-56
2022/07/25 04:18:34;;;;;;;3.80;3.40;;;19.20;99.90;;;;;;5050569;28;20033;-56
2022/07/25 04:21:00;;;;;;;3.47;2.95;;;19.30;99.90;;;;;;5045480;28;20021;-57
2022/07/25 04:23:27;;;;;;;3.30;3.00;;;19.30;99.90;;;;;;5026282;28;20029;-58
2022/07/25 04:25:53;;;;;;;4.85;3.10;;;19.30;99.90;;;;;;5030011;28;20039;-57
2022/07/25 04:28:18;;;;;;;4.25;3.08;;;19.40;99.90;;;;;;5047795;28;20021;-55
2022/07/25 04:30:44;;;;;;;4.00;3.55;;;19.40;99.90;;;;;;5044287;28;20028;-59
2022/07/25 04:33:11;;;;;;;3.45;2.58;;;19.40;99.90;;;;;;5040282;28;20487;-56
2022/07/25 04:35:37;;;;;;;3.65;3.35;;;19.50;99.90;;;;;;5030612;28;20021;-55
2022/07/25 04:38:03;;;;;;;3.13;2.92;;;19.50;99.90;;;;;;5048990;28;20021;-56
2022/07/25 04:40:28;;;;;;;4.00;2.90;;;19.60;99.90;;;;;;5047169;28;20021;-58
2022/07/25 04:42:54;;;;;;;3.22;3.03;;;19.60;99.90;;;;;;5049511;28;20028;-56
2022/07/25 04:45:20;;;;;;;3.83;3.40;;;19.70;99.90;;;;;;5032174;28;20454;-57
2022/07/25 04:47:45;;;;;;;3.25;2.95;;;19.70;99.90;;;;;;5030945;28;20459;-54
2022/07/25 04:50:11;;;;;;;3.40;3.10;;;19.70;99.90;;;;;;5046889;28;20076;-55
2022/07/25 04:52:37;;;;;;;3.28;2.67;;;19.80;99.90;;;;;;5029871;28;20075;-56
2022/07/25 04:55:03;;;;;;;4.03;2.50;;;19.80;99.90;;;;;;5032122;28;20018;-54
2022/07/25 04:57:29;;;;;;;4.00;2.75;;;19.80;99.90;;;;;;5047290;28;20039;-54
2022/07/25 04:59:55;;;;;;;2.78;2.58;;;19.90;99.90;;;;;;5031493;28;20025;-57
2022/07/25 05:02:21;;;;;;;2.92;2.72;;;19.90;99.90;;;;;;5046225;28;20033;-57
2022/07/25 05:04:46;;;;;;;4.30;3.00;;;20.00;99.90;;;;;;5048315;28;20021;-57
2022/07/25 05:07:12;;;;;;;2.95;2.70;;;20.00;99.90;;;;;;5047101;28;20025;-54
2022/07/25 05:09:38;;;;;;;3.15;2.85;;;20.00;99.90;;;;;;5028829;28;20029;-57
2022/07/25 05:12:04;;;;;;;6.25;2.60;;;20.10;99.90;;;;;;5030123;28;20055;-54
2022/07/25 05:14:30;;;;;;;5.18;3.38;;;20.10;99.90;;;;;;5044904;28;20125;-54
2022/07/25 05:16:55;;;;;;;2.97;2.78;;;20.10;99.90;;;;;;5049300;28;20025;-57
2022/07/25 05:19:21;;;;;;;3.03;2.83;;;20.20;99.90;;;;;;5045683;28;20036;-58
2022/07/25 05:21:46;;;;;;;3.17;2.92;;;20.30;99.90;;;;;;5030230;28;20039;-54
2022/07/25 05:24:12;;;;;;;4.10;3.30;;;20.30;99.90;;;;;;5029348;28;20467;-55
2022/07/25 05:26:38;;;;;;;3.03;2.75;;;20.40;99.90;;;;;;5046625;28;20045;-55
2022/07/25 05:29:03;;;;;;;3.20;2.65;;;20.40;99.90;;;;;;5045209;28;20515;-56
2022/07/25 05:31:29;;;;;;;3.00;2.65;;;20.50;99.90;;;;;;5049379;28;20029;-57
2022/07/25 05:33:54;;;;;;;5.25;2.78;;;20.60;99.90;;;;;;5027050;28;20704;-55
2022/07/25 05:36:20;;;;;;;2.85;2.60;;;20.70;99.90;;;;;;5047177;28;20021;-57
2022/07/25 05:38:45;;;;;;;3.05;2.85;;;20.80;99.90;;;;;;5043894;28;20048;-57
2022/07/25 05:41:11;;;;;;;2.60;2.40;;;20.90;99.90;;;;;;5045808;28;20029;-56
2022/07/25 05:43:37;;;;;;;3.28;2.97;;;20.90;99.90;;;;;;5048677;28;20097;-55
2022/07/25 05:46:04;;;;;;;2.72;2.53;;;21.00;99.90;;;;;;5027739;28;20025;-55
2022/07/25 05:48:30;;;;;;;2.67;2.47;;;21.10;99.70;;;;;;5047887;28;20487;-56
2022/07/25 05:50:58;;;;;;;3.70;2.75;;;21.20;99.60;;;;;;5026101;28;20108;-55
2022/07/25 05:53:24;;;;;;;3.22;2.90;;;21.30;98.70;;;;;;5029033;28;20166;-58
2022/07/25 05:55:49;;;;;;;4.18;3.00;;;21.30;99.30;;;;;;5043718;28;20033;-56
2022/07/25 05:58:15;;;;;;;3.35;2.72;;;21.40;99.40;;;;;;5048357;28;20039;-56
2022/07/25 06:00:41;;;;;;;5.55;3.53;;;21.60;99.00;;;;;;5047914;28;20104;-57
2022/07/25 06:03:06;;;;;;;3.15;2.85;;;21.70;98.90;;;;;;5043333;28;20033;-56
2022/07/25 06:05:32;;;;;;;3.08;2.40;;;21.80;99.30;;;;;;5039047;28;20025;-58
2022/07/25 06:07:57;;;;;;;4.95;2.90;;;22.00;98.80;;;;;;5039867;28;20546;-56
2022/07/25 06:10:23;;;;;;;4.80;3.13;;;22.00;98.60;;;;;;5046831;28;20108;-55
2022/07/25 06:12:49;;;;;;;3.05;2.83;;;22.10;98.60;;;;;;5044653;28;20130;-57
2022/07/25 06:15:14;;;;;;;2.85;2.45;;;22.20;98.10;;;;;;5041891;28;20059;-59
2022/07/25 06:17:40;;;;;;;3.35;2.75;;;22.40;98.00;;;;;;5044125;28;20048;-58
2022/07/25 06:20:06;;;;;;;3.72;3.17;;;22.50;97.30;;;;;;5045054;28;20639;-57
2022/07/25 06:22:31;;;;;;;3.03;2.75;;;22.70;97.30;;;;;;5046705;28;20071;-57
2022/07/25 06:24:57;;;;;;;5.15;2.90;;;22.80;96.90;;;;;;5043772;28;20024;-57
2022/07/25 06:27:22;;;;;;;3.63;3.30;;;22.90;96.40;;;;;;5045254;28;20585;-57
2022/07/25 06:29:48;;;;;;;3.47;3.17;;;23.10;95.60;;;;;;5046932;28;20033;-58
2022/07/25 06:32:14;;;;;;;2.67;2.47;;;23.10;95.80;;;;;;5048275;28;20036;-57
2022/07/25 06:34:39;;;;;;;3.53;3.20;;;23.10;95.80;;;;;;5044150;28;20025;-57
2022/07/25 06:37:05;;;;;;;3.72;2.40;;;23.20;95.90;;;;;;5020475;28;20026;-59
2022/07/25 06:39:31;;;;;;;4.57;3.10;;;23.40;95.20;;;;;;5043512;28;20043;-56
2022/07/25 06:41:58;;;;;;;2.90;2.70;;;23.50;95.50;;;;;;5027836;28;20033;-57
2022/07/25 06:44:24;;;;;;;2.85;2.65;;;23.70;95.40;;;;;;5048739;28;20454;-57
2022/07/25 06:46:49;;;;;;;3.75;2.88;;;23.90;95.10;;;;;;5046414;28;20025;-60
2022/07/25 06:49:15;;;;;;;6.00;3.65;;;24.00;95.50;;;;;;5044872;28;20403;-59
2022/07/25 06:51:41;;;;;;;3.30;3.00;;;24.10;95.50;;;;;;5046612;28;20032;-59
2022/07/25 06:54:06;;;;;;;3.28;2.97;;;24.30;94.00;;;;;;5045877;28;20021;-57
2022/07/25 06:56:32;;;;;;;4.22;3.33;;;24.40;94.40;;;;;;5028370;28;20021;-59
2022/07/25 06:58:58;;;;;;;3.15;2.80;;;24.50;94.80;;;;;;5044178;28;20464;-60
2022/07/25 07:01:24;;;;;;;4.50;3.35;;;24.60;94.10;;;;;;5048071;28;20084;-60
2022/07/25 07:03:49;;;;;;;4.10;3.20;;;24.80;93.80;;;;;;5026586;28;20119;-56
2022/07/25 07:06:15;;;;;;;3.30;3.00;;;24.90;94.70;;;;;;5048592;28;20055;-56
2022/07/25 07:08:41;;;;;;;6.60;3.50;;;25.00;93.70;;;;;;5043896;28;20048;-59
2022/07/25 07:11:06;;;;;;;2.97;2.78;;;25.10;94.10;;;;;;5046067;28;20475;-59
2022/07/25 07:13:33;;;;;;;5.97;3.10;;;25.30;94.10;;;;;;5043966;28;20021;-59
2022/07/25 07:15:58;;;;;;;7.05;3.33;;;25.30;92.90;;;;;;5044785;28;20021;-59
2022/07/25 07:18:24;;;;;;;4.97;3.17;;;25.50;93.60;;;;;;5047211;28;20450;-60
2022/07/25 07:20:51;;;;;;;2.70;2.50;;;25.60;93.00;;;;;;5047364;28;20036;-57
2022/07/25 07:23:17;;;;;;;3.78;3.00;;;25.70;93.80;;;;;;5028815;28;20028;-60
2022/07/25 07:25:44;;;;;;;3.88;3.00;;;25.90;93.30;;;;;;5043045;28;20099;-57
2022/07/25 07:28:10;;;;;;;4.78;3.13;;;26.00;93.30;;;;;;5050181;23;20068;-61
2022/07/25 07:30:36;;;;;;;3.97;3.10;;;26.20;93.40;;;;;;5039070;28;20551;-62
2022/07/25 07:33:01;;;;;;;3.28;3.08;;;26.40;92.70;;;;;;5045010;28;20128;-62
2022/07/25 07:35:27;;;;;;;4.28;2.92;;;26.50;93.40;;;;;;5039977;28;20108;-61
2022/07/25 07:37:53;;;;;;;4.32;3.35;;;26.80;92.10;;;;;;5023431;28;20037;-62
2022/07/25 07:40:19;;;;;;;3.58;3.17;;;26.90;92.30;;;;;;5028060;28;20105;-63
2022/07/25 07:42:46;;;;;;;3.92;3.38;;;27.10;91.70;;;;;;5020707;28;20488;-62
2022/07/25 07:45:18;;;;;;;3.78;3.47;;;27.30;91.10;;;;;;5028074;28;20361;-62
2022/07/25 07:47:46;;;;;;;4.38;3.15;;;27.40;90.40;;;;;;5027295;28;20041;-61
2022/07/25 07:50:14;;;;;;;6.97;3.60;;;27.60;90.30;;;;;;5031919;28;20076;-64
2022/07/25 07:52:40;;;;;;;4.28;3.88;;;27.80;90.50;;;;;;5030233;28;20045;-62
2022/07/25 07:57:51;;;;;;;6.70;3.70;;;28.10;89.30;;;;;;5031445;28;20048;-58
2022/07/25 08:00:17;;;;;;;4.30;3.90;;;28.20;89.00;;;;;;5031847;28;20484;-63
2022/07/25 08:02:47;;;;;;;6.20;4.03;;;28.40;88.60;;;;;;5023950;28;20033;-62
2022/07/25 08:05:21;;;;;;;6.15;3.22;;;28.50;87.50;;;;;;5031706;28;20025;-62
2022/07/25 08:07:47;;;;;;;4.28;3.47;;;28.80;87.70;;;;;;5031702;28;20551;-62
2022/07/25 08:10:12;;;;;;;5.47;3.97;;;29.00;86.90;;;;;;5031451;28;20037;-58
2022/07/25 08:12:40;;;;;;;4.10;3.80;;;29.20;86.20;;;;;;5031144;28;20431;-62
2022/07/25 08:15:06;;;;;;;4.18;3.78;;;29.40;85.70;;;;;;5031381;28;20033;-62
2022/07/25 08:17:32;;;;;;;3.83;3.45;;;29.50;84.80;;;;;;5031650;28;20057;-61
2022/07/25 08:19:57;;;;;;;3.85;3.55;;;29.60;84.80;;;;;;5031310;28;20026;-59
2022/07/25 08:22:23;;;;;;;4.85;3.75;;;29.70;83.80;;;;;;5031451;28;20105;-60
2022/07/25 08:24:49;;;;;;;4.28;3.78;;;29.80;83.50;;;;;;5024535;28;20072;-60
2022/07/25 08:27:14;;;;;;;5.47;3.85;;;29.90;83.30;;;;;;5031141;28;20162;-62
2022/07/25 08:29:40;;;;;;;4.57;3.70;;;29.90;81.70;;;;;;5030993;28;20025;-61
2022/07/25 08:32:05;;;;;;;5.65;3.72;;;29.90;81.90;;;;;;5030814;28;20021;-62
2022/07/25 08:34:31;;;;;;;3.70;3.40;;;30.10;82.50;;;;;;5030500;28;20389;-63
2022/07/25 08:36:56;;;;;;;4.80;4.00;;;30.40;82.50;;;;;;5029403;28;20495;-63
2022/07/25 08:39:22;;;;;;;5.43;4.38;;;30.60;81.10;;;;;;5030462;28;20021;-58
2022/07/25 08:41:48;;;;;;;6.82;4.00;;;30.90;78.70;;;;;;5030605;28;20076;-62
2022/07/25 08:44:17;;;;;;;4.93;3.72;;;31.20;79.70;;;;;;5030285;28;20029;-59
2022/07/25 08:46:44;;;;;;;4.20;3.85;;;31.10;78.60;;;;;;5030526;28;20025;-61
2022/07/25 08:49:10;;;;;;;4.40;4.00;;;31.10;80.00;;;;;;5030379;28;20060;-62
2022/07/25 08:51:37;;;;;;;8.13;4.32;;;31.10;78.30;;;;;;5030694;28;20013;-61
2022/07/25 08:54:03;;;;;;;6.45;4.30;;;31.10;78.30;;;;;;5030609;28;20112;-65
2022/07/25 08:56:29;;;;;;;4.63;3.90;;;31.20;77.70;;;;;;5031057;28;20021;-62
2022/07/25 08:58:57;;;;;;;4.13;3.72;;;31.30;77.90;;;;;;5030681;28;20056;-62
2022/07/25 09:01:23;;;;;;;4.78;3.75;;;31.50;78.00;;;;;;5030659;28;20017;-62
2022/07/25 09:03:49;;;;;;;8.43;4.28;;;31.60;79.70;;;;;;5030229;28;20399;-63
2022/07/25 09:06:19;;;;;;;5.32;4.47;;;31.70;77.30;;;;;;5029190;28;20434;-61
2022/07/25 09:08:56;;;;;;;4.70;4.30;;;31.70;77.00;;;;;;5030514;28;20021;-62
2022/07/25 09:11:26;;;;;;;5.68;4.00;;;31.70;75.70;;;;;;5028965;28;20033;-62
2022/07/25 09:14:01;;;;;;;4.85;4.32;;;31.70;76.30;;;;;;5029017;28;20024;-62
2022/07/25 09:16:42;;;;;;;4.45;4.05;;;31.70;76.50;;;;;;5030169;28;20625;-65
2022/07/25 09:19:11;;;;;;;6.60;4.55;;;31.80;76.00;;;;;;5029117;28;20037;-62
2022/07/25 09:21:38;;;;;;;5.63;4.25;;;31.90;74.80;;;;;;5030029;28;20510;-62
2022/07/25 09:24:16;;;;;;;6.35;4.38;;;32.10;75.30;;;;;;5030410;28;20060;-64
2022/07/25 09:26:46;;;;;;;4.57;4.18;;;32.40;75.60;;;;;;5029765;28;20030;-63
2022/07/25 09:29:16;;;;;;;5.40;4.90;;;32.70;75.90;;;;;;5029995;28;20558;-61
2022/07/25 09:31:42;;;;;;;4.60;4.18;;;32.80;73.00;;;;;;5028779;28;20108;-61
2022/07/25 09:34:08;;;;;;;5.85;4.70;;;33.10;73.80;;;;;;5029192;28;20440;-65
2022/07/25 09:36:38;;;;;;;6.03;4.72;;;33.20;70.80;;;;;;5030369;28;20480;-61
2022/07/25 09:39:05;;;;;;;4.72;3.97;;;33.20;71.40;;;;;;5029736;28;20108;-64
2022/07/25 09:41:39;;;;;;;4.82;3.97;;;33.10;72.20;;;;;;5029790;28;20483;-65
2022/07/25 09:44:28;;;;;;;5.38;4.88;;;33.10;72.40;;;;;;5029831;28;20029;-62
2022/07/25 09:46:54;;;;;;;5.72;4.15;;;33.10;71.70;;;;;;5029592;28;20120;-61
2022/07/25 09:49:19;;;;;;;4.80;4.30;;;33.30;70.80;;;;;;5029711;28;20057;-64
2022/07/25 09:51:46;;;;;;;5.45;4.85;;;33.30;70.20;;;;;;5029510;28;20392;-62
2022/07/25 09:54:12;;;;;;;6.68;4.13;;;33.40;70.80;;;;;;5029526;28;20021;-62
2022/07/25 09:56:37;;;;;;;4.70;4.25;;;33.30;69.90;;;;;;5026658;28;20427;-63
2022/07/25 09:59:04;;;;;;;4.43;3.95;;;33.20;69.80;;;;;;5028294;28;20037;-64
2022/07/25 10:01:36;;;;;;;4.25;3.95;;;33.30;69.60;;;;;;5028948;28;20025;-61
2022/07/25 10:04:16;;;;;;;4.90;4.43;;;33.30;69.40;;;;;;5029413;28;20044;-63
2022/07/25 10:06:49;;;;;;;4.00;3.70;;;33.20;68.40;;;;;;5016910;28;20018;-62
2022/07/25 10:09:15;;;;;;;4.88;4.25;;;33.20;69.60;;;;;;5029509;28;20040;-64
2022/07/25 10:12:01;;;;;;;6.22;4.70;;;33.00;70.10;;;;;;5027690;28;20018;-63
2022/07/25 10:14:27;;;;;;;5.65;4.20;;;33.00;70.10;;;;;;5025493;28;20079;-64
2022/07/25 10:16:52;;;;;;;5.18;4.68;;;32.90;69.80;;;;;;5028483;28;20025;-62
2022/07/25 10:19:41;;;;;;;4.75;4.35;;;32.80;70.60;;;;;;5024303;28;20025;-64
2022/07/25 10:22:07;;;;;;;4.40;4.00;;;32.80;70.20;;;;;;5028940;28;20135;-63
2022/07/25 10:24:36;;;;;;;4.65;4.25;;;32.90;71.20;;;;;;5028383;28;20026;-64
2022/07/25 10:27:10;;;;;;;6.80;5.72;;;32.90;69.80;;;;;;5024742;28;20049;-64
2022/07/25 10:29:37;;;;;;;5.35;4.85;;;32.90;69.60;;;;;;5026924;28;20033;-64
2022/07/25 10:32:12;;;;;;;4.60;3.92;;;32.80;69.70;;;;;;5028720;28;20099;-64
2022/07/25 10:34:38;;;;;;;5.70;3.88;;;32.80;69.80;;;;;;5025428;28;20029;-64
2022/07/25 10:37:16;;;;;;;4.90;4.50;;;32.80;70.40;;;;;;5026057;28;20045;-63
2022/07/25 10:39:44;;;;;;;4.63;4.25;;;32.70;69.30;;;;;;5024902;28;20025;-64
2022/07/25 10:42:15;;;;;;;5.25;4.55;;;32.70;70.00;;;;;;5025203;28;20026;-64
2022/07/25 10:44:43;;;;;;;8.35;4.65;;;32.70;69.80;;;;;;5025180;28;20040;-63
2022/07/25 10:47:10;;;;;;;5.72;4.70;;;32.50;70.90;;;;;;5027742;28;20033;-62
2022/07/25 10:49:40;;;;;;;6.10;4.57;;;32.40;70.50;;;;;;5029241;28;20511;-63
2022/07/25 10:52:06;;;;;;;4.82;4.43;;;32.30;70.70;;;;;;5028048;28;20071;-61
2022/07/25 10:54:37;;;;;;;4.72;4.32;;;32.30;69.80;;;;;;5023275;28;20013;-63
2022/07/25 10:57:05;;;;;;;5.43;4.93;;;32.30;70.20;;;;;;5027491;28;20052;-61
2022/07/25 10:59:36;;;;;;;5.13;4.38;;;32.30;71.20;;;;;;5028216;28;20100;-62
2022/07/25 11:02:08;;;;;;;5.18;4.68;;;32.30;70.30;;;;;;5025395;28;20030;-63
2022/07/25 11:04:35;;;;;;;5.88;5.00;;;32.20;70.40;;;;;;5028176;28;20017;-66
2022/07/25 11:07:14;;;;;;;4.93;4.43;;;32.20;71.20;;;;;;5028898;28;20009;-63
2022/07/25 11:09:41;;;;;;;4.53;4.15;;;32.10;70.80;;;;;;5028412;28;20029;-64
2022/07/25 11:12:07;;;;;;;6.03;4.65;;;32.10;71.30;;;;;;5027947;28;20041;-63
2022/07/25 11:14:40;;;;;;;6.03;4.70;;;32.10;70.90;;;;;;5028074;28;20013;-63
2022/07/25 11:17:12;;;;;;;4.68;4.28;;;32.10;71.90;;;;;;5027498;28;20041;-62
2022/07/25 11:19:37;;;;;;;5.35;4.85;;;32.10;71.80;;;;;;5028063;28;20082;-64
2022/07/25 11:22:03;;;;;;;5.18;4.70;;;32.20;72.30;;;;;;5027999;28;20116;-60
2022/07/25 11:24:41;;;;;;;5.55;4.30;;;32.00;71.20;;;;;;5030710;28;20040;-61
2022/07/25 11:27:09;;;;;;;4.97;4.57;;;32.00;71.40;;;;;;5029482;28;20032;-62
2022/07/25 11:29:36;;;;;;;4.40;4.00;;;32.00;71.20;;;;;;5031604;28;20033;-64
2022/07/25 11:32:06;;;;;;;5.90;4.75;;;32.00;71.00;;;;;;5029697;28;20411;-63
2022/07/25 11:34:35;;;;;;;4.57;4.13;;;32.20;71.40;;;;;;5031632;28;20092;-62
2022/07/25 11:37:04;;;;;;;4.35;3.95;;;32.20;71.60;;;;;;5030863;28;20027;-62
2022/07/25 11:39:33;;;;;;;4.55;4.07;;;32.20;71.70;;;;;;5031991;28;20072;-63
2022/07/25 11:42:03;;;;;;;4.90;4.40;;;32.30;71.50;;;;;;5029535;28;20032;-63
2022/07/25 11:44:46;;;;;;;4.93;4.45;;;32.40;71.80;;;;;;5030296;28;20049;-62
2022/07/25 11:47:29;;;;;;;4.93;4.53;;;32.40;71.10;;;;;;5031979;28;20080;-63
2022/07/25 11:49:57;;;;;;;5.05;4.55;;;32.40;71.40;;;;;;5031920;28;20021;-61
2022/07/25 11:52:32;;;;;;;7.13;4.57;;;32.50;71.20;;;;;;5027300;28;20022;-63
2022/07/25 11:55:00;;;;;;;4.30;3.90;;;32.50;70.50;;;;;;5030605;28;20075;-60
2022/07/25 11:57:31;;;;;;;5.65;4.40;;;32.50;72.10;;;;;;5031727;28;20017;-63
2022/07/25 11:59:59;;;;;;;5.10;4.70;;;32.60;71.50;;;;;;5031326;28;20387;-59
2022/07/25 12:02:26;;;;;;;5.70;4.75;;;32.60;69.70;;;;;;5031837;28;20017;-61
2022/07/25 12:05:11;;;;;;;5.50;5.00;;;32.60;71.50;;;;;;5031327;28;20025;-63
2022/07/25 12:07:56;;;;;;;5.30;4.70;;;32.60;70.90;;;;;;5027579;28;20056;-59
2022/07/25 12:10:32;;;;;;;5.28;4.50;;;32.60;70.70;;;;;;5023687;28;20037;-62
2022/07/25 12:13:01;;;;;;;5.20;4.60;;;32.60;69.90;;;;;;5029200;28;20029;-62
2022/07/25 12:15:32;;;;;;;6.30;4.93;;;32.70;70.00;;;;;;5029562;28;20108;-61
2022/07/25 12:17:58;;;;;;;5.55;4.35;;;32.80;69.50;;;;;;5030951;28;20024;-63
2022/07/25 12:20:25;;;;;;;5.03;4.43;;;32.80;69.10;;;;;;5030481;28;20022;-64
2022/07/25 12:22:54;;;;;;;4.80;4.40;;;32.70;68.50;;;;;;5030665;28;20523;-64
2022/07/25 12:25:20;;;;;;;5.75;4.55;;;32.70;68.90;;;;;;5030350;28;20033;-64
2022/07/25 12:27:46;;;;;;;7.75;4.90;;;32.80;69.40;;;;;;5030736;28;20030;-63
2022/07/25 12:30:13;;;;;;;5.10;4.60;;;33.00;69.90;;;;;;5030151;28;20553;-63
2022/07/25 12:32:40;;;;;;;6.55;4.15;;;33.10;68.20;;;;;;5031292;28;20021;-64
2022/07/25 12:35:07;;;;;;;4.50;4.07;;;33.10;68.30;;;;;;5029679;28;20022;-64
2022/07/25 12:37:33;;;;;;;4.68;4.28;;;33.10;67.40;;;;;;5027974;28;20420;-64
2022/07/25 12:39:59;;;;;;;5.10;4.70;;;32.90;66.60;;;;;;5031042;28;20468;-64
2022/07/25 12:42:26;;;;;;;4.95;4.55;;;33.00;66.90;;;;;;5030784;28;20026;-62
2022/07/25 12:44:51;;;;;;;5.10;4.35;;;33.20;67.60;;;;;;5024666;28;20029;-64
2022/07/25 12:47:17;;;;;;;5.00;4.60;;;33.10;66.60;;;;;;5029718;28;20021;-65
2022/07/25 12:49:43;;;;;;;4.18;3.88;;;33.00;67.80;;;;;;5030358;28;20095;-63
2022/07/25 12:52:08;;;;;;;4.88;4.47;;;32.90;67.70;;;;;;5029366;28;20036;-63